Time;durP1;ratioP1;P1;durP2;ratioP2;P2;SDS_P1;SDS_P2;PMS_P1;PMS_P2;Temp;Humidity;BMP_temperature;BMP_pressure;BME280_temperature;BME280_humidity;BME280_pressure;Samples;Min_cycle;Max_cycle;Signal;HPM_P1;HPM_P2
2023/09/09 00:00:56;;;;;;;4.23;1.73;;;;;;;;;;5046901;28;20033;-70
2023/09/09 00:03:24;;;;;;;1.63;1.13;;;;;;;;;;5048455;28;20017;-70
2023/09/09 00:05:51;;;;;;;1.43;1.07;;;;;;;;;;5050988;28;20029;-70
2023/09/09 00:08:21;;;;;;;1.00;0.90;;;;;;;;;;5051708;28;20821;-70
2023/09/09 00:10:48;;;;;;;1.40;1.00;;;;;;;;;;5051529;28;20022;-70
2023/09/09 00:13:15;;;;;;;3.83;2.80;;;;;;;;;;5051600;28;20464;-71
2023/09/09 00:15:42;;;;;;;3.40;1.73;;;;;;;;;;5050679;28;20021;-70
2023/09/09 00:18:08;;;;;;;1.03;0.90;;;;;;;;;;5046661;28;20570;-70
2023/09/09 00:20:36;;;;;;;6.23;3.43;;;;;;;;;;5046853;28;20116;-70
2023/09/09 00:23:07;;;;;;;2.93;1.40;;;;;;;;;;5046344;28;20021;-70
2023/09/09 00:25:34;;;;;;;2.30;1.83;;;;;;;;;;5046757;28;20091;-71
2023/09/09 00:28:01;;;;;;;2.80;1.30;;;;;;;;;;5047977;28;20057;-70
2023/09/09 00:30:28;;;;;;;0.60;0.57;;;;;;;;;;5051408;28;20039;-70
2023/09/09 00:32:54;;;;;;;1.77;0.70;;;;;;;;;;5051368;28;20017;-71
2023/09/09 00:35:21;;;;;;;1.90;0.80;;;;;;;;;;5052584;28;20415;-70
2023/09/09 00:37:48;;;;;;;1.43;1.10;;;;;;;;;;5054905;28;20017;-70
2023/09/09 00:40:14;;;;;;;1.53;1.07;;;;;;;;;;5054452;28;20017;-70
2023/09/09 00:42:41;;;;;;;14.37;1.67;;;;;;;;;;5050232;28;20029;-70
2023/09/09 00:45:08;;;;;;;1.17;0.97;;;;;;;;;;5050089;28;20044;-70
2023/09/09 00:47:35;;;;;;;1.10;0.80;;;;;;;;;;5049991;28;20032;-70
2023/09/09 00:50:03;;;;;;;1.13;0.67;;;;;;;;;;5050072;28;20036;-70
2023/09/09 00:52:30;;;;;;;2.13;1.10;;;;;;;;;;5050481;28;20027;-70
2023/09/09 00:54:56;;;;;;;10.00;1.20;;;;;;;;;;5036417;28;20028;-70
2023/09/09 00:57:23;;;;;;;0.90;0.53;;;;;;;;;;5054541;28;20025;-70
2023/09/09 00:59:50;;;;;;;0.93;0.50;;;;;;;;;;5054902;28;20556;-70
2023/09/09 01:02:16;;;;;;;1.20;0.60;;;;;;;;;;5054726;28;20092;-70
2023/09/09 01:04:43;;;;;;;1.63;1.00;;;;;;;;;;5054459;28;20052;-70
2023/09/09 01:07:10;;;;;;;1.57;0.70;;;;;;;;;;5031837;28;20074;-70
2023/09/09 01:09:36;;;;;;;4.07;1.47;;;;;;;;;;5049512;28;20142;-70
2023/09/09 01:12:05;;;;;;;0.60;0.50;;;;;;;;;;5049007;28;20158;-70
2023/09/09 01:14:32;;;;;;;1.50;0.93;;;;;;;;;;5049328;28;20529;-70
2023/09/09 01:16:59;;;;;;;0.77;0.40;;;;;;;;;;5048943;28;20476;-70
2023/09/09 01:19:26;;;;;;;1.03;0.70;;;;;;;;;;5053501;28;20021;-70
2023/09/09 01:21:54;;;;;;;1.43;0.93;;;;;;;;;;5054137;28;20100;-70
2023/09/09 01:24:21;;;;;;;0.73;0.70;;;;;;;;;;5053606;28;20021;-70
2023/09/09 01:26:48;;;;;;;1.77;1.17;;;;;;;;;;5053908;28;20131;-70
2023/09/09 01:29:15;;;;;;;1.10;0.70;;;;;;;;;;5053534;28;20043;-70
2023/09/09 01:31:41;;;;;;;2.23;0.93;;;;;;;;;;5049670;28;20104;-70
2023/09/09 01:34:08;;;;;;;0.87;0.63;;;;;;;;;;5049474;28;20443;-70
2023/09/09 01:36:34;;;;;;;1.40;0.80;;;;;;;;;;5049188;28;20032;-70
2023/09/09 01:39:01;;;;;;;1.77;1.00;;;;;;;;;;5049102;28;20028;-70
2023/09/09 01:41:28;;;;;;;6.00;1.23;;;;;;;;;;5049200;28;20025;-70
2023/09/09 01:43:54;;;;;;;2.00;1.17;;;;;;;;;;5053119;28;20467;-70
2023/09/09 01:46:21;;;;;;;0.97;0.70;;;;;;;;;;5052805;28;20078;-70
2023/09/09 01:48:48;;;;;;;1.47;1.00;;;;;;;;;;5053305;28;20031;-70
2023/09/09 01:51:14;;;;;;;1.73;1.03;;;;;;;;;;5053337;28;20543;-70
2023/09/09 01:53:41;;;;;;;1.00;0.70;;;;;;;;;;5053646;28;20021;-70
2023/09/09 01:56:08;;;;;;;3.03;0.70;;;;;;;;;;5049550;28;20021;-70
2023/09/09 01:58:34;;;;;;;1.33;0.90;;;;;;;;;;5048070;28;20100;-70
2023/09/09 02:01:01;;;;;;;1.17;0.87;;;;;;;;;;5047736;28;20037;-70
2023/09/09 02:03:28;;;;;;;3.87;1.20;;;;;;;;;;5046080;28;20142;-67
2023/09/09 02:05:54;;;;;;;1.70;1.00;;;;;;;;;;5050729;28;20032;-69
2023/09/09 02:08:21;;;;;;;2.67;1.27;;;;;;;;;;5053575;28;20547;-70
2023/09/09 02:10:51;;;;;;;1.03;0.83;;;;;;;;;;5052996;28;20029;-70
2023/09/09 02:13:18;;;;;;;2.27;1.33;;;;;;;;;;5053337;28;20032;-70
2023/09/09 02:15:45;;;;;;;3.87;2.10;;;;;;;;;;5053175;28;20029;-70
2023/09/09 02:18:11;;;;;;;2.50;1.50;;;;;;;;;;5049921;28;20021;-70
2023/09/09 02:20:38;;;;;;;2.23;1.40;;;;;;;;;;5047477;28;20036;-70
2023/09/09 02:23:04;;;;;;;1.53;0.93;;;;;;;;;;5047731;28;20027;-71
2023/09/09 02:25:31;;;;;;;2.87;1.60;;;;;;;;;;5047933;28;20504;-70
2023/09/09 02:27:58;;;;;;;2.03;1.33;;;;;;;;;;5050358;28;20048;-70
2023/09/09 02:30:24;;;;;;;1.50;1.17;;;;;;;;;;5052742;28;20116;-70
2023/09/09 02:32:51;;;;;;;8.33;1.43;;;;;;;;;;5052951;28;20028;-70
2023/09/09 02:35:19;;;;;;;4.80;1.70;;;;;;;;;;5052982;28;20025;-71
2023/09/09 02:37:45;;;;;;;1.80;1.30;;;;;;;;;;5052465;28;20142;-70
2023/09/09 02:40:12;;;;;;;4.47;1.60;;;;;;;;;;5049939;28;20365;-70
2023/09/09 02:42:39;;;;;;;1.43;1.13;;;;;;;;;;5047689;28;20021;-70
2023/09/09 02:45:05;;;;;;;2.30;1.40;;;;;;;;;;5047397;28;20025;-71
2023/09/09 02:47:32;;;;;;;2.17;1.47;;;;;;;;;;5047419;28;20048;-70
2023/09/09 02:49:59;;;;;;;2.63;1.83;;;;;;;;;;5049425;28;20548;-69
2023/09/09 02:52:26;;;;;;;3.80;1.90;;;;;;;;;;5052694;28;20032;-69
2023/09/09 02:54:52;;;;;;;2.87;2.07;;;;;;;;;;5052253;28;20523;-70
2023/09/09 02:57:22;;;;;;;6.07;1.93;;;;;;;;;;5052508;28;20495;-69
2023/09/09 02:59:49;;;;;;;5.53;2.67;;;;;;;;;;5052347;28;20069;-69
2023/09/09 03:02:16;;;;;;;3.17;1.97;;;;;;;;;;5050113;28;20021;-70
2023/09/09 03:04:43;;;;;;;3.00;2.03;;;;;;;;;;5047374;28;20020;-70
2023/09/09 03:07:09;;;;;;;3.77;1.87;;;;;;;;;;5047287;28;20531;-70
2023/09/09 03:09:36;;;;;;;3.70;1.20;;;;;;;;;;5047066;28;20033;-69
2023/09/09 03:12:05;;;;;;;2.27;1.47;;;;;;;;;;5048189;28;20026;-70
2023/09/09 03:14:32;;;;;;;5.17;1.80;;;;;;;;;;5052276;28;20551;-70
2023/09/09 03:17:02;;;;;;;1.97;1.13;;;;;;;;;;5052337;28;20222;-72
2023/09/09 03:19:29;;;;;;;1.60;1.07;;;;;;;;;;5052233;28;20025;-68
2023/09/09 03:21:57;;;;;;;1.40;1.03;;;;;;;;;;5052252;28;20025;-69
2023/09/09 03:24:24;;;;;;;1.43;0.90;;;;;;;;;;5050504;28;20029;-67
2023/09/09 03:26:50;;;;;;;1.70;1.13;;;;;;;;;;5046713;28;20037;-66
2023/09/09 03:29:17;;;;;;;3.57;1.90;;;;;;;;;;5046996;28;20029;-65
2023/09/09 03:31:43;;;;;;;5.10;1.07;;;;;;;;;;5046850;28;20025;-67
2023/09/09 03:34:10;;;;;;;1.40;1.20;;;;;;;;;;5047845;28;21176;-67
2023/09/09 03:36:37;;;;;;;1.60;1.03;;;;;;;;;;5052226;28;20082;-65
2023/09/09 03:39:04;;;;;;;7.97;1.77;;;;;;;;;;5052173;28;20086;-67
2023/09/09 03:41:31;;;;;;;2.03;1.13;;;;;;;;;;5052081;28;20052;-69
2023/09/09 03:43:57;;;;;;;3.57;1.47;;;;;;;;;;5051601;28;20088;-65
2023/09/09 03:46:24;;;;;;;2.90;1.57;;;;;;;;;;5050471;28;20057;-67
2023/09/09 03:48:51;;;;;;;1.57;1.00;;;;;;;;;;5046714;28;20511;-67
2023/09/09 03:51:19;;;;;;;1.17;0.97;;;;;;;;;;5046705;28;20043;-65
2023/09/09 03:53:46;;;;;;;2.33;1.23;;;;;;;;;;5046877;28;20104;-68
2023/09/09 03:56:12;;;;;;;3.30;1.13;;;;;;;;;;5047003;28;20112;-67
2023/09/09 03:58:39;;;;;;;4.37;1.80;;;;;;;;;;5051606;28;20036;-69
2023/09/09 04:01:07;;;;;;;2.33;1.63;;;;;;;;;;5051465;28;20096;-69
2023/09/09 04:03:35;;;;;;;1.50;1.10;;;;;;;;;;5051876;28;20021;-65
2023/09/09 04:06:06;;;;;;;2.97;1.80;;;;;;;;;;5051758;28;20029;-65
2023/09/09 04:08:36;;;;;;;1.67;1.27;;;;;;;;;;5051030;28;20017;-65
2023/09/09 04:11:03;;;;;;;2.10;1.40;;;;;;;;;;5048984;28;20021;-66
2023/09/09 04:13:30;;;;;;;1.90;1.47;;;;;;;;;;5050361;28;20021;-68
2023/09/09 04:15:57;;;;;;;3.57;1.50;;;;;;;;;;5049973;28;20059;-67
2023/09/09 04:18:24;;;;;;;1.90;1.43;;;;;;;;;;5032449;28;20429;-68
2023/09/09 04:20:51;;;;;;;1.87;1.40;;;;;;;;;;5055287;28;20028;-70
2023/09/09 04:23:18;;;;;;;2.20;1.50;;;;;;;;;;5055314;28;20025;-69
2023/09/09 04:25:45;;;;;;;1.90;1.47;;;;;;;;;;5055543;28;20406;-67
2023/09/09 04:28:12;;;;;;;10.93;2.60;;;;;;;;;;5055415;28;20049;-67
2023/09/09 04:30:39;;;;;;;1.93;1.27;;;;;;;;;;5055172;28;20116;-67
2023/09/09 04:33:07;;;;;;;1.67;1.33;;;;;;;;;;5049845;28;20422;-68
2023/09/09 04:35:34;;;;;;;3.80;2.23;;;;;;;;;;5050280;28;20097;-69
2023/09/09 04:38:01;;;;;;;4.23;1.73;;;;;;;;;;5050214;28;20143;-68
2023/09/09 04:40:28;;;;;;;1.30;1.20;;;;;;;;;;5049582;28;20086;-70
2023/09/09 04:42:54;;;;;;;2.07;1.60;;;;;;;;;;5054516;28;20021;-68
2023/09/09 04:45:23;;;;;;;2.10;1.53;;;;;;;;;;5054964;28;20025;-67
2023/09/09 04:47:50;;;;;;;3.90;1.70;;;;;;;;;;5054970;28;20029;-67
2023/09/09 04:50:18;;;;;;;2.93;1.97;;;;;;;;;;5054513;28;20032;-67
2023/09/09 04:52:45;;;;;;;2.73;1.70;;;;;;;;;;5054853;28;20803;-67
2023/09/09 04:55:12;;;;;;;2.93;2.13;;;;;;;;;;5049766;28;20083;-67
2023/09/09 04:57:39;;;;;;;4.53;2.10;;;;;;;;;;5049584;28;20029;-67
2023/09/09 05:00:06;;;;;;;2.70;1.70;;;;;;;;;;5031560;28;20472;-67
2023/09/09 05:02:37;;;;;;;7.43;1.83;;;;;;;;;;5049372;28;20096;-66
2023/09/09 05:05:05;;;;;;;2.87;1.80;;;;;;;;;;5053450;28;20017;-67
2023/09/09 05:07:35;;;;;;;7.90;1.47;;;;;;;;;;5054653;28;20048;-67
2023/09/09 05:10:05;;;;;;;1.60;1.30;;;;;;;;;;5054298;28;20032;-67
2023/09/09 05:12:32;;;;;;;8.00;1.83;;;;;;;;;;5054519;28;20024;-68
2023/09/09 05:14:59;;;;;;;2.53;1.80;;;;;;;;;;5054379;28;20025;-67
2023/09/09 05:17:26;;;;;;;4.70;1.80;;;;;;;;;;5049551;28;20036;-67
2023/09/09 05:19:52;;;;;;;4.47;2.50;;;;;;;;;;5049315;28;20021;-67
2023/09/09 05:22:19;;;;;;;3.00;1.37;;;;;;;;;;5047973;28;20040;-67
2023/09/09 05:24:46;;;;;;;2.50;1.80;;;;;;;;;;5049042;28;20392;-67
2023/09/09 05:27:12;;;;;;;2.73;1.80;;;;;;;;;;5035222;28;20025;-67
2023/09/09 05:29:39;;;;;;;2.47;1.87;;;;;;;;;;5054153;28;20090;-67
2023/09/09 05:32:06;;;;;;;2.20;1.70;;;;;;;;;;5054149;28;20025;-67
2023/09/09 05:34:32;;;;;;;8.53;3.50;;;;;;;;;;5054242;28;20029;-67
2023/09/09 05:36:59;;;;;;;3.73;2.50;;;;;;;;;;5053920;28;20021;-67
2023/09/09 05:39:26;;;;;;;5.93;3.43;;;;;;;;;;5049612;28;20021;-66
2023/09/09 05:41:52;;;;;;;2.30;1.80;;;;;;;;;;5048912;28;20029;-68
2023/09/09 05:44:19;;;;;;;4.00;2.77;;;;;;;;;;5048630;28;20025;-67
2023/09/09 05:46:52;;;;;;;2.43;1.87;;;;;;;;;;5048580;28;20024;-67
2023/09/09 05:49:23;;;;;;;3.07;2.07;;;;;;;;;;5052009;28;20040;-67
2023/09/09 05:51:49;;;;;;;3.93;2.27;;;;;;;;;;5053745;28;20021;-67
2023/09/09 05:54:16;;;;;;;4.37;2.73;;;;;;;;;;5053442;28;20024;-67
2023/09/09 05:56:42;;;;;;;4.63;3.27;;;;;;;;;;5053871;28;20024;-67
2023/09/09 05:59:10;;;;;;;4.67;3.17;;;;;;;;;;5053455;28;20514;-66
2023/09/09 06:01:36;;;;;;;3.13;2.43;;;;;;;;;;5049603;28;20629;-67
2023/09/09 06:04:03;;;;;;;3.37;2.60;;;;;;;;;;5047561;28;20077;-66
2023/09/09 06:06:30;;;;;;;4.53;2.77;;;;;;;;;;5046682;28;20025;-67
2023/09/09 06:08:57;;;;;;;3.37;2.27;;;;;;;;;;5046522;28;20025;-67
2023/09/09 06:11:25;;;;;;;3.30;2.33;;;;;;;;;;5049423;28;20031;-66
2023/09/09 06:13:52;;;;;;;4.63;3.40;;;;;;;;;;5051388;28;20036;-67
2023/09/09 06:16:18;;;;;;;6.07;4.33;;;;;;;;;;5051395;28;20021;-67
2023/09/09 06:18:45;;;;;;;7.00;4.63;;;;;;;;;;5051937;28;20025;-67
2023/09/09 06:21:12;;;;;;;5.80;4.03;;;;;;;;;;5052550;28;20476;-67
2023/09/09 06:23:38;;;;;;;7.97;5.37;;;;;;;;;;5049450;28;20025;-67
2023/09/09 06:26:05;;;;;;;5.47;3.93;;;;;;;;;;5047844;28;20410;-67
2023/09/09 06:28:31;;;;;;;6.83;4.30;;;;;;;;;;5047726;28;20032;-67
2023/09/09 06:30:58;;;;;;;6.00;3.70;;;;;;;;;;5047719;28;20056;-67
2023/09/09 06:33:25;;;;;;;7.87;4.90;;;;;;;;;;5032115;28;20109;-67
2023/09/09 06:35:52;;;;;;;3.90;3.10;;;;;;;;;;5052985;28;20029;-66
2023/09/09 06:38:18;;;;;;;6.50;4.73;;;;;;;;;;5052858;28;20113;-67
2023/09/09 06:40:46;;;;;;;5.47;4.30;;;;;;;;;;5053084;28;20083;-67
2023/09/09 06:43:13;;;;;;;7.60;4.70;;;;;;;;;;5034571;28;20051;-67
2023/09/09 06:45:40;;;;;;;6.13;3.97;;;;;;;;;;5049883;28;20017;-67
2023/09/09 06:48:07;;;;;;;7.00;4.63;;;;;;;;;;5047486;28;20024;-67
2023/09/09 06:50:34;;;;;;;6.20;4.27;;;;;;;;;;5029362;28;20037;-67
2023/09/09 06:53:00;;;;;;;9.20;4.57;;;;;;;;;;5047453;28;20106;-67
2023/09/09 06:55:27;;;;;;;6.27;4.53;;;;;;;;;;5049534;28;20027;-67
2023/09/09 06:57:54;;;;;;;4.80;3.93;;;;;;;;;;5052444;28;20108;-67
2023/09/09 07:00:20;;;;;;;7.17;4.73;;;;;;;;;;5052046;28;20037;-67
2023/09/09 07:02:47;;;;;;;6.30;4.37;;;;;;;;;;5052640;28;20091;-67
2023/09/09 07:05:16;;;;;;;7.33;4.20;;;;;;;;;;5034666;28;20040;-66
2023/09/09 07:07:43;;;;;;;6.10;3.83;;;;;;;;;;5049704;28;20404;-67
2023/09/09 07:10:10;;;;;;;6.60;3.97;;;;;;;;;;5047062;28;20052;-67
2023/09/09 07:12:37;;;;;;;5.07;3.80;;;;;;;;;;5047057;28;20099;-66
2023/09/09 07:15:03;;;;;;;3.73;3.10;;;;;;;;;;5046616;28;20028;-67
2023/09/09 07:17:30;;;;;;;5.90;4.13;;;;;;;;;;5048719;28;20100;-67
2023/09/09 07:19:57;;;;;;;11.37;4.43;;;;;;;;;;5052236;28;20057;-67
2023/09/09 07:22:23;;;;;;;5.73;3.10;;;;;;;;;;5052491;28;20028;-66
2023/09/09 07:24:50;;;;;;;8.57;3.23;;;;;;;;;;5052175;28;20118;-67
2023/09/09 07:27:17;;;;;;;5.63;4.43;;;;;;;;;;5052209;28;20021;-66
2023/09/09 07:29:43;;;;;;;4.00;3.13;;;;;;;;;;5050258;28;20029;-67
2023/09/09 07:32:10;;;;;;;5.83;4.37;;;;;;;;;;5028891;28;20375;-67
2023/09/09 07:34:37;;;;;;;5.17;4.17;;;;;;;;;;5046661;28;20040;-67
2023/09/09 07:37:03;;;;;;;7.17;4.03;;;;;;;;;;5046809;28;20028;-67
2023/09/09 07:39:30;;;;;;;4.93;4.00;;;;;;;;;;5047893;28;20021;-66
2023/09/09 07:41:57;;;;;;;4.63;3.60;;;;;;;;;;5052116;28;20021;-67
2023/09/09 07:44:23;;;;;;;4.73;3.27;;;;;;;;;;5051945;28;20043;-66
2023/09/09 07:46:50;;;;;;;3.50;2.73;;;;;;;;;;5056103;28;20410;-66
2023/09/09 07:49:18;;;;;;;7.53;5.23;;;;;;;;;;5055635;28;20037;-67
2023/09/09 07:51:45;;;;;;;6.60;4.47;;;;;;;;;;5054695;28;20070;-67
2023/09/09 07:54:12;;;;;;;6.70;4.47;;;;;;;;;;5050524;28;20027;-67
2023/09/09 07:56:42;;;;;;;6.07;4.40;;;;;;;;;;5050766;28;20121;-67
2023/09/09 07:59:08;;;;;;;7.83;4.20;;;;;;;;;;5032644;28;20372;-66
2023/09/09 08:01:35;;;;;;;5.70;3.03;;;;;;;;;;5051093;28;20104;-67
2023/09/09 08:04:01;;;;;;;5.53;3.60;;;;;;;;;;5055858;28;20021;-67
2023/09/09 08:06:28;;;;;;;6.17;3.60;;;;;;;;;;5055181;28;20017;-67
2023/09/09 08:08:55;;;;;;;6.37;3.33;;;;;;;;;;5055595;28;20017;-67
2023/09/09 08:11:21;;;;;;;14.00;2.80;;;;;;;;;;5037861;28;20549;-66
2023/09/09 08:13:48;;;;;;;4.93;3.53;;;;;;;;;;5054767;28;20024;-67
2023/09/09 08:16:15;;;;;;;6.60;2.83;;;;;;;;;;5050241;28;20446;-66
2023/09/09 08:18:42;;;;;;;3.97;2.73;;;;;;;;;;5050232;28;20432;-66
2023/09/09 08:21:10;;;;;;;3.83;3.23;;;;;;;;;;5050268;28;20033;-66
2023/09/09 08:23:37;;;;;;;4.70;2.83;;;;;;;;;;5049849;28;20495;-67
2023/09/09 08:26:04;;;;;;;6.67;3.47;;;;;;;;;;5055507;28;20028;-67
2023/09/09 08:28:30;;;;;;;3.47;2.63;;;;;;;;;;5055428;28;20021;-66
2023/09/09 08:31:03;;;;;;;4.73;3.23;;;;;;;;;;5055212;28;20054;-67
2023/09/09 08:33:30;;;;;;;3.77;2.90;;;;;;;;;;5055134;28;20025;-67
2023/09/09 08:36:00;;;;;;;2.80;2.03;;;;;;;;;;5054752;28;20484;-67
2023/09/09 08:38:27;;;;;;;4.87;3.27;;;;;;;;;;5049637;28;20446;-67
2023/09/09 08:41:03;;;;;;;5.27;2.83;;;;;;;;;;5049858;28;20039;-67
2023/09/09 08:43:34;;;;;;;8.17;3.43;;;;;;;;;;5049816;28;20021;-67
2023/09/09 08:46:17;;;;;;;3.83;2.70;;;;;;;;;;5049981;28;20028;-66
2023/09/09 08:48:44;;;;;;;3.13;2.33;;;;;;;;;;5054826;28;20025;-66
2023/09/09 08:51:15;;;;;;;5.40;3.20;;;;;;;;;;5054863;28;20033;-67
2023/09/09 08:53:42;;;;;;;2.80;2.27;;;;;;;;;;5054888;28;20021;-67
2023/09/09 08:56:08;;;;;;;1.70;1.40;;;;;;;;;;5054453;28;20043;-66
2023/09/09 08:58:36;;;;;;;3.13;2.37;;;;;;;;;;5053118;28;20472;-67
2023/09/09 09:01:03;;;;;;;2.07;1.63;;;;;;;;;;5049449;28;20028;-66
2023/09/09 09:03:30;;;;;;;2.57;1.80;;;;;;;;;;5031242;28;20021;-67
2023/09/09 09:05:57;;;;;;;2.57;2.00;;;;;;;;;;5049476;28;20025;-67
2023/09/09 09:08:24;;;;;;;2.27;1.90;;;;;;;;;;5050182;28;20498;-67
2023/09/09 09:10:51;;;;;;;3.77;2.10;;;;;;;;;;5054572;28;20041;-67
2023/09/09 09:13:17;;;;;;;3.40;2.43;;;;;;;;;;5054575;28;20055;-67
2023/09/09 09:15:44;;;;;;;2.50;1.97;;;;;;;;;;5054342;28;20025;-67
2023/09/09 09:18:11;;;;;;;4.00;2.10;;;;;;;;;;5054530;28;21180;-67
2023/09/09 09:20:40;;;;;;;5.00;1.80;;;;;;;;;;5053329;28;20031;-67
2023/09/09 09:23:07;;;;;;;2.50;2.07;;;;;;;;;;5049097;28;20087;-66
2023/09/09 09:25:37;;;;;;;2.50;1.77;;;;;;;;;;5049028;28;20025;-67
2023/09/09 09:28:04;;;;;;;2.37;1.73;;;;;;;;;;5048847;28;20033;-66
2023/09/09 09:30:32;;;;;;;2.93;2.27;;;;;;;;;;5049411;28;20045;-67
2023/09/09 09:32:58;;;;;;;3.20;2.27;;;;;;;;;;5053856;28;20021;-67
2023/09/09 09:35:26;;;;;;;3.03;2.07;;;;;;;;;;5053628;28;20380;-67
2023/09/09 09:37:53;;;;;;;3.37;2.30;;;;;;;;;;5054145;28;20021;-66
2023/09/09 09:40:20;;;;;;;2.93;2.07;;;;;;;;;;5054023;28;20029;-66
2023/09/09 09:42:47;;;;;;;4.50;2.70;;;;;;;;;;5053309;28;20166;-67
2023/09/09 09:45:14;;;;;;;3.00;2.13;;;;;;;;;;5048519;28;20095;-66
2023/09/09 09:47:44;;;;;;;3.77;2.47;;;;;;;;;;5048641;28;20033;-66
2023/09/09 09:50:18;;;;;;;3.90;2.40;;;;;;;;;;5048126;28;20037;-67
2023/09/09 09:52:51;;;;;;;3.83;2.85;;;;;;;;;;5048819;28;20162;-66
2023/09/09 09:55:18;;;;;;;3.07;2.30;;;;;;;;;;5053757;28;20029;-67
2023/09/09 09:57:47;;;;;;;3.17;2.07;;;;;;;;;;5053704;28;20364;-66
2023/09/09 10:00:15;;;;;;;2.40;1.97;;;;;;;;;;5053455;28;20488;-66
2023/09/09 10:02:42;;;;;;;2.37;1.60;;;;;;;;;;5053133;28;20028;-67
2023/09/09 10:05:12;;;;;;;4.93;2.43;;;;;;;;;;5052493;28;20036;-66
2023/09/09 10:07:42;;;;;;;2.77;1.93;;;;;;;;;;5047458;28;20036;-66
2023/09/09 10:10:10;;;;;;;3.97;1.90;;;;;;;;;;5048134;28;20029;-67
2023/09/09 10:12:52;;;;;;;3.80;2.43;;;;;;;;;;5030152;28;20396;-67
2023/09/09 10:15:21;;;;;;;4.00;2.40;;;;;;;;;;5048693;28;20387;-66
2023/09/09 10:17:51;;;;;;;3.80;2.47;;;;;;;;;;5053311;28;20100;-66
2023/09/09 10:20:18;;;;;;;3.67;2.10;;;;;;;;;;5053237;28;20384;-67
2023/09/09 10:22:45;;;;;;;2.27;1.67;;;;;;;;;;5053172;28;20029;-66
2023/09/09 10:25:12;;;;;;;5.07;3.57;;;;;;;;;;5053056;28;20029;-66
2023/09/09 10:27:39;;;;;;;4.80;2.90;;;;;;;;;;5051552;28;20032;-66
2023/09/09 10:30:08;;;;;;;2.50;1.87;;;;;;;;;;5047185;28;20041;-67
2023/09/09 10:32:38;;;;;;;4.67;2.87;;;;;;;;;;5047690;28;20507;-67
2023/09/09 10:35:05;;;;;;;7.10;3.27;;;;;;;;;;5047658;28;20107;-66
2023/09/09 10:37:35;;;;;;;3.67;2.67;;;;;;;;;;5048554;28;20029;-66
2023/09/09 10:40:04;;;;;;;3.27;2.37;;;;;;;;;;5052619;28;20020;-66
2023/09/09 10:42:31;;;;;;;2.77;2.07;;;;;;;;;;5034963;28;20052;-66
2023/09/09 10:45:18;;;;;;;4.77;2.90;;;;;;;;;;5052561;28;20486;-67
2023/09/09 10:47:58;;;;;;;5.27;2.60;;;;;;;;;;5052541;28;20074;-66
2023/09/09 10:50:45;;;;;;;4.63;3.00;;;;;;;;;;5049817;28;20025;-66
2023/09/09 10:53:15;;;;;;;3.10;2.00;;;;;;;;;;5047230;28;20024;-67
2023/09/09 10:55:42;;;;;;;3.07;2.27;;;;;;;;;;5047273;28;20116;-66
2023/09/09 10:58:09;;;;;;;4.73;3.00;;;;;;;;;;5047058;28;20033;-66
2023/09/09 11:00:42;;;;;;;5.47;3.37;;;;;;;;;;5049943;28;20047;-67
2023/09/09 11:03:38;;;;;;;3.53;2.60;;;;;;;;;;5052113;28;20021;-67
2023/09/09 11:06:07;;;;;;;;;;;;;;;;;;5031983;28;20036;-66
2023/09/09 11:09:01;;;;;;;6.00;4.60;;;;;;;;;;5052197;28;19995;-66
2023/09/09 11:11:37;;;;;;;5.27;4.77;;;;;;;;;;5048844;28;20396;-67
2023/09/09 11:14:07;;;;;;;5.43;3.60;;;;;;;;;;5046916;28;20021;-68
2023/09/09 11:16:35;;;;;;;3.53;2.57;;;;;;;;;;5046968;28;20036;-66
2023/09/09 11:19:02;;;;;;;2.97;2.30;;;;;;;;;;5046387;28;20025;-67
2023/09/09 11:21:32;;;;;;;4.23;2.70;;;;;;;;;;5046553;28;20029;-66
2023/09/09 11:23:59;;;;;;;4.03;2.93;;;;;;;;;;5052264;28;20040;-66
2023/09/09 11:26:26;;;;;;;3.83;2.73;;;;;;;;;;5052333;28;20173;-67
2023/09/09 11:28:53;;;;;;;2.27;1.70;;;;;;;;;;5051899;28;20055;-66
2023/09/09 11:31:20;;;;;;;4.73;3.13;;;;;;;;;;5052000;28;20021;-66
2023/09/09 11:33:46;;;;;;;7.50;5.50;;;;;;;;;;5052138;28;20032;-66
2023/09/09 11:36:17;;;;;;;9.77;4.87;;;;;;;;;;5046353;28;20375;-67
2023/09/09 11:38:44;;;;;;;7.80;5.90;;;;;;;;;;5046851;28;20029;-66
2023/09/09 11:41:21;;;;;;;6.73;4.10;;;;;;;;;;5046872;28;20028;-66
2023/09/09 11:43:59;;;;;;;7.90;4.33;;;;;;;;;;5046848;28;20103;-66
2023/09/09 11:46:26;;;;;;;7.03;3.33;;;;;;;;;;5051523;28;20480;-67
2023/09/09 11:48:53;;;;;;;8.90;3.73;;;;;;;;;;5052004;28;20371;-66
2023/09/09 11:51:21;;;;;;;7.23;4.47;;;;;;;;;;5052121;28;20040;-67
2023/09/09 11:53:48;;;;;;;5.33;3.57;;;;;;;;;;5051832;28;20025;-66
2023/09/09 11:56:15;;;;;;;5.67;3.80;;;;;;;;;;5051315;28;20053;-67
2023/09/09 11:58:42;;;;;;;3.73;2.87;;;;;;;;;;5046304;28;20021;-66
2023/09/09 12:01:12;;;;;;;3.80;2.93;;;;;;;;;;5046707;28;20247;-67
2023/09/09 12:03:39;;;;;;;3.17;2.43;;;;;;;;;;5046709;28;20021;-66
2023/09/09 12:06:07;;;;;;;4.40;2.93;;;;;;;;;;5046209;28;20469;-67
2023/09/09 12:08:35;;;;;;;4.40;2.93;;;;;;;;;;5051849;28;20021;-66
2023/09/09 12:11:02;;;;;;;3.47;2.37;;;;;;;;;;5051941;28;20033;-67
2023/09/09 12:13:29;;;;;;;3.53;2.40;;;;;;;;;;5051705;28;20100;-67
2023/09/09 12:15:56;;;;;;;5.70;2.60;;;;;;;;;;5051670;28;20033;-67
2023/09/09 12:18:23;;;;;;;7.87;2.73;;;;;;;;;;5051028;28;20063;-67
2023/09/09 12:21:09;;;;;;;5.17;3.70;;;;;;;;;;5046417;28;20082;-66
2023/09/09 12:23:39;;;;;;;6.00;3.67;;;;;;;;;;5046261;28;20091;-68
2023/09/09 12:26:08;;;;;;;5.37;3.07;;;;;;;;;;5046487;28;20036;-66
2023/09/09 12:28:35;;;;;;;4.60;2.70;;;;;;;;;;5046386;28;20044;-66
2023/09/09 12:31:03;;;;;;;8.10;3.30;;;;;;;;;;5052507;28;20372;-66
2023/09/09 12:33:37;;;;;;;6.63;4.67;;;;;;;;;;5055324;28;20051;-66
2023/09/09 12:36:03;;;;;;;13.83;8.10;;;;;;;;;;5055303;28;20028;-66
2023/09/09 12:38:38;;;;;;;10.93;7.73;;;;;;;;;;5055269;28;20488;-66
2023/09/09 12:41:05;;;;;;;26.33;10.05;;;;;;;;;;5053326;28;20052;-67
2023/09/09 12:43:32;;;;;;;17.70;8.10;;;;;;;;;;5049770;28;20353;-66
2023/09/09 12:46:09;;;;;;;13.07;8.33;;;;;;;;;;5049984;28;20032;-66
2023/09/09 12:49:03;;;;;;;9.17;5.40;;;;;;;;;;5049755;28;20506;-66
2023/09/09 12:51:32;;;;;;;7.70;4.07;;;;;;;;;;5048658;28;20045;-66
2023/09/09 12:54:00;;;;;;;6.87;4.37;;;;;;;;;;5054991;28;20467;-66
2023/09/09 12:56:27;;;;;;;11.00;3.30;;;;;;;;;;5054848;28;20349;-66
2023/09/09 12:58:54;;;;;;;2.57;2.10;;;;;;;;;;5054596;28;20507;-66
2023/09/09 13:01:20;;;;;;;8.53;2.50;;;;;;;;;;5054858;28;20048;-66
2023/09/09 13:03:47;;;;;;;4.50;2.90;;;;;;;;;;5052130;28;20024;-66
2023/09/09 13:06:14;;;;;;;3.17;2.33;;;;;;;;;;5049083;28;20032;-66
2023/09/09 13:08:40;;;;;;;4.40;2.97;;;;;;;;;;5049198;28;20028;-66
2023/09/09 13:11:07;;;;;;;3.83;2.23;;;;;;;;;;5049132;28;20112;-66
2023/09/09 13:13:34;;;;;;;3.67;2.70;;;;;;;;;;5050675;28;20459;-66
2023/09/09 13:16:00;;;;;;;3.67;2.77;;;;;;;;;;5054641;28;20024;-66
2023/09/09 13:18:27;;;;;;;3.50;2.60;;;;;;;;;;5054688;28;20025;-66
2023/09/09 13:20:54;;;;;;;26.60;2.70;;;;;;;;;;5054281;28;20021;-66
2023/09/09 13:23:20;;;;;;;4.70;2.73;;;;;;;;;;5054038;28;20045;-66
2023/09/09 13:25:47;;;;;;;8.33;2.70;;;;;;;;;;5052493;28;20025;-67
2023/09/09 13:28:13;;;;;;;3.93;2.53;;;;;;;;;;5048970;28;20024;-66
2023/09/09 13:30:40;;;;;;;2.50;2.00;;;;;;;;;;5048744;28;20036;-66
2023/09/09 13:33:07;;;;;;;3.40;2.40;;;;;;;;;;5048838;28;20025;-66
2023/09/09 13:35:33;;;;;;;2.63;2.00;;;;;;;;;;5050072;28;20021;-66
2023/09/09 13:38:00;;;;;;;4.57;2.80;;;;;;;;;;5054015;28;20025;-66
2023/09/09 13:40:27;;;;;;;3.33;2.50;;;;;;;;;;5053605;28;20380;-67
2023/09/09 13:42:53;;;;;;;4.77;2.57;;;;;;;;;;5053025;28;20396;-66
2023/09/09 13:45:20;;;;;;;7.80;3.20;;;;;;;;;;5053918;28;20036;-66
2023/09/09 13:47:47;;;;;;;2.23;1.93;;;;;;;;;;5052327;28;20027;-67
2023/09/09 13:50:13;;;;;;;3.03;2.23;;;;;;;;;;5048408;28;20383;-66
2023/09/09 13:52:40;;;;;;;4.57;2.80;;;;;;;;;;5048613;28;20032;-67
2023/09/09 13:55:07;;;;;;;3.43;2.20;;;;;;;;;;5048316;28;20025;-67
2023/09/09 13:57:34;;;;;;;4.83;2.03;;;;;;;;;;5049015;28;20025;-67
2023/09/09 14:00:03;;;;;;;3.90;2.13;;;;;;;;;;5035826;28;20354;-66
2023/09/09 14:02:31;;;;;;;4.87;2.60;;;;;;;;;;5035945;28;20383;-67
2023/09/09 14:04:57;;;;;;;6.17;3.77;;;;;;;;;;5035445;28;20029;-67
2023/09/09 14:07:24;;;;;;;3.63;2.37;;;;;;;;;;5053589;28;20468;-67
2023/09/09 14:09:50;;;;;;;2.33;1.87;;;;;;;;;;5052260;28;20029;-67
2023/09/09 14:12:17;;;;;;;3.93;2.37;;;;;;;;;;5047791;28;20053;-67
2023/09/09 14:14:44;;;;;;;3.47;2.07;;;;;;;;;;5048042;28;20051;-67
2023/09/09 14:17:10;;;;;;;6.27;2.83;;;;;;;;;;5048013;28;20032;-67
2023/09/09 14:19:38;;;;;;;2.77;1.67;;;;;;;;;;5048104;28;20472;-67
2023/09/09 14:22:05;;;;;;;4.80;2.53;;;;;;;;;;5053099;28;20052;-67
2023/09/09 14:24:34;;;;;;;3.53;1.93;;;;;;;;;;5053248;28;20030;-67
2023/09/09 14:27:01;;;;;;;5.57;2.03;;;;;;;;;;5052594;28;20515;-67
2023/09/09 14:29:28;;;;;;;3.53;2.00;;;;;;;;;;5053127;28;20020;-67
2023/09/09 14:31:54;;;;;;;2.07;1.50;;;;;;;;;;5052655;28;20491;-67
2023/09/09 14:34:21;;;;;;;1.77;1.20;;;;;;;;;;5047646;28;20028;-67
2023/09/09 14:36:48;;;;;;;4.27;1.93;;;;;;;;;;5047766;28;20039;-67
2023/09/09 14:39:14;;;;;;;1.80;1.40;;;;;;;;;;5047349;28;20032;-67
2023/09/09 14:41:41;;;;;;;3.63;1.80;;;;;;;;;;5047565;28;20029;-67
2023/09/09 14:44:07;;;;;;;2.40;1.53;;;;;;;;;;5052377;28;20021;-67
2023/09/09 14:46:34;;;;;;;2.13;1.50;;;;;;;;;;5052726;28;20028;-67